Calvert, Alabama
Current Conditions -  °F | °C
As of 7:09 AM on Sunday 21 Dec 2014 (Local Time) from KMOB Reporting Station
Haze Haze  
Wind Chill: 45°   Ceiling: 25000
Heat Index: 48°   Visibility: 3mi
Dew Point: 47°   Wind: 7mph
Humidity: 96%   Direction: 40°NE
Pressure: 30.11"   Gusts: NA
Location:  31.15°N, 88.01°W
Report Text: KMOB 211309Z 04006KT 3SM BR SCT028 BKN250 09/08 A3011 RMK AO2 T00890083 $
Loading
Personal Weather Stations






























Interactive Weather Map New forecast layout! Learn more

10-Day Weather Forecast

Advertisements
Track Severe Weather on mobile